Time;durP1;ratioP1;P1;durP2;ratioP2;P2;SDS_P1;SDS_P2;PMS_P1;PMS_P2;Temp;Humidity;BMP_temperature;BMP_pressure;BME280_temperature;BME280_humidity;BME280_pressure;Samples;Min_cycle;Max_cycle;Signal;HPM_P1;HPM_P2
2024/01/26 00:01:36;;;;;;;;;;;12.30;99.90;;;;;;5094546;28;20009;-67
2024/01/26 00:04:02;;;;;;;;;;;12.40;99.90;;;;;;5092910;28;19908;-68
2024/01/26 00:06:27;;;;;;;;;;;12.30;99.90;;;;;;5093952;28;19947;-68
2024/01/26 00:08:53;;;;;;;;;;;12.30;99.90;;;;;;5094451;28;19908;-68
2024/01/26 00:11:19;;;;;;;;;;;12.30;99.90;;;;;;5094397;28;19923;-68
2024/01/26 00:13:45;;;;;;;;;;;12.10;99.90;;;;;;5094139;28;19915;-68
2024/01/26 00:16:11;;;;;;;;;;;12.10;99.90;;;;;;5093794;28;19908;-69
2024/01/26 00:18:38;;;;;;;;;;;12.00;99.90;;;;;;5093836;28;19912;-67
2024/01/26 00:21:04;;;;;;;;;;;11.90;99.90;;;;;;5093741;28;20048;-67
2024/01/26 00:23:30;;;;;;;;;;;11.90;99.90;;;;;;5093612;28;20342;-65
2024/01/26 00:25:57;;;;;;;;;;;11.80;99.90;;;;;;5093720;28;19908;-68
2024/01/26 00:28:22;;;;;;;;;;;11.80;99.90;;;;;;5093520;28;20244;-68
2024/01/26 00:30:48;;;;;;;;;;;11.70;99.90;;;;;;5093477;28;19916;-64
2024/01/26 00:33:14;;;;;;;;;;;11.80;99.90;;;;;;5093574;28;19916;-68
2024/01/26 00:35:40;;;;;;;;;;;11.70;99.90;;;;;;5093475;28;19961;-66
2024/01/26 00:38:06;;;;;;;;;;;11.70;99.90;;;;;;5093149;28;20364;-66
2024/01/26 00:40:32;;;;;;;;;;;11.70;99.90;;;;;;5093495;28;20003;-67
2024/01/26 00:42:57;;;;;;;;;;;11.70;99.90;;;;;;5093389;28;20013;-67
2024/01/26 00:45:23;;;;;;;;;;;11.60;99.90;;;;;;5092733;28;19912;-67
2024/01/26 00:47:49;;;;;;;;;;;11.60;99.90;;;;;;5093297;28;19994;-66
2024/01/26 00:50:15;;;;;;;;;;;11.60;99.90;;;;;;5093253;28;19908;-69
2024/01/26 00:52:40;;;;;;;;;;;11.70;99.90;;;;;;5093259;28;19996;-69
2024/01/26 00:55:06;;;;;;;;;;;11.70;99.90;;;;;;5093377;28;20138;-67
2024/01/26 00:57:32;;;;;;;;;;;11.80;99.90;;;;;;5092988;28;19999;-67
2024/01/26 00:59:59;;;;;;;;;;;11.70;99.90;;;;;;5093090;28;19931;-68
2024/01/26 01:02:25;;;;;;;;;;;11.70;99.90;;;;;;5092870;28;20325;-68
2024/01/26 01:04:51;;;;;;;;;;;11.70;99.90;;;;;;5091186;28;19908;-67
2024/01/26 01:07:17;;;;;;;;;;;11.80;99.90;;;;;;5092363;28;19932;-68
2024/01/26 01:09:42;;;;;;;;;;;11.80;99.90;;;;;;5093069;28;19908;-70
2024/01/26 01:12:08;;;;;;;;;;;11.80;99.90;;;;;;5091986;28;20008;-68
2024/01/26 01:14:36;;;;;;;;;;;11.80;99.90;;;;;;5093005;28;19981;-69
2024/01/26 01:17:04;;;;;;;;;;;11.80;99.90;;;;;;5092426;28;19998;-68
2024/01/26 01:19:30;;;;;;;;;;;11.80;99.90;;;;;;5092904;28;19912;-68
2024/01/26 01:21:56;;;;;;;;;;;11.90;99.90;;;;;;5092563;28;19976;-68
2024/01/26 01:24:23;;;;;;;;;;;12.00;99.90;;;;;;5074335;28;19915;-68
2024/01/26 01:26:49;;;;;;;;;;;11.90;99.90;;;;;;5092831;28;19965;-68
2024/01/26 01:29:15;;;;;;;;;;;11.90;99.90;;;;;;5092287;28;19916;-67
2024/01/26 01:31:41;;;;;;;;;;;11.80;99.90;;;;;;5092365;28;19916;-68
2024/01/26 01:34:06;;;;;;;;;;;11.90;99.90;;;;;;5092509;28;20045;-68
2024/01/26 01:36:33;;;;;;;;;;;11.90;99.90;;;;;;5090904;28;20352;-68
2024/01/26 01:38:59;;;;;;;;;;;11.90;99.90;;;;;;5091098;28;19952;-67
2024/01/26 01:41:25;;;;;;;;;;;12.00;99.90;;;;;;5092234;28;19919;-68
2024/01/26 01:43:54;;;;;;;;;;;12.00;99.90;;;;;;5092606;28;20085;-67
2024/01/26 01:46:20;;;;;;;;;;;11.90;99.90;;;;;;5092307;28;19908;-70
2024/01/26 01:48:46;;;;;;;;;;;11.90;99.90;;;;;;5092181;28;19934;-67
2024/01/26 01:51:13;;;;;;;;;;;11.90;99.90;;;;;;5075936;28;19924;-67
2024/01/26 01:53:39;;;;;;;;;;;11.70;99.90;;;;;;5072123;28;20218;-68
2024/01/26 01:56:10;;;;;;;;;;;11.70;99.90;;;;;;5071615;28;20017;-68
2024/01/26 01:58:37;;;;;;;;;;;11.70;99.90;;;;;;5071665;28;19909;-69
2024/01/26 02:01:04;;;;;;;;;;;11.70;99.90;;;;;;5071797;28;19944;-67
2024/01/26 02:03:30;;;;;;;;;;;11.60;99.90;;;;;;5071542;28;19916;-66
2024/01/26 02:05:56;;;;;;;;;;;11.60;99.90;;;;;;5071257;28;19908;-67
2024/01/26 02:08:22;;;;;;;;;;;11.50;99.90;;;;;;5069608;28;19924;-69
2024/01/26 02:10:47;;;;;;;;;;;11.40;99.90;;;;;;5071606;28;20284;-68
2024/01/26 02:13:16;;;;;;;;;;;11.40;99.90;;;;;;5071720;28;19985;-68
2024/01/26 02:15:41;;;;;;;;;;;11.30;99.90;;;;;;5070563;28;19908;-67
2024/01/26 02:18:07;;;;;;;;;;;11.30;99.90;;;;;;5071386;28;19935;-68
2024/01/26 02:20:33;;;;;;;;;;;11.30;99.90;;;;;;5071491;28;19995;-67
2024/01/26 02:22:59;;;;;;;;;;;11.30;99.90;;;;;;5071088;28;19920;-66
2024/01/26 02:25:25;;;;;;;;;;;11.30;99.90;;;;;;5071355;28;20350;-68
2024/01/26 02:27:51;;;;;;;;;;;11.30;99.90;;;;;;5070881;28;19954;-68
2024/01/26 02:30:17;;;;;;;;;;;11.30;99.90;;;;;;5069650;28;19913;-68
2024/01/26 02:32:43;;;;;;;;;;;11.40;99.90;;;;;;5071054;28;20015;-67
2024/01/26 02:35:10;;;;;;;;;;;11.40;99.90;;;;;;5071130;28;19908;-68
2024/01/26 02:37:35;;;;;;;;;;;11.50;99.90;;;;;;5070715;28;19999;-68
2024/01/26 02:40:01;;;;;;;;;;;11.50;99.90;;;;;;5070667;28;20334;-69
2024/01/26 02:42:27;;;;;;;;;;;11.60;99.90;;;;;;5070716;28;20054;-67
2024/01/26 02:44:53;;;;;;;;;;;11.60;99.90;;;;;;5070576;28;20015;-69
2024/01/26 02:47:19;;;;;;;;;;;11.60;99.90;;;;;;5070449;28;20434;-68
2024/01/26 02:49:44;;;;;;;;;;;11.50;99.90;;;;;;5073810;28;19908;-67
2024/01/26 02:52:10;;;;;;;;;;;11.60;99.90;;;;;;5090544;28;19920;-67
2024/01/26 02:54:36;;;;;;;;;;;11.50;99.90;;;;;;5072218;28;19913;-67
2024/01/26 02:57:03;;;;;;;;;;;11.50;99.90;;;;;;5090581;28;20022;-67
2024/01/26 02:59:29;;;;;;;;;;;11.40;99.90;;;;;;5090578;28;19959;-67
2024/01/26 03:01:55;;;;;;;;;;;11.40;99.90;;;;;;5090494;28;20359;-67
2024/01/26 03:04:24;;;;;;;;;;;11.40;99.90;;;;;;5090692;28;19912;-67
2024/01/26 03:06:50;;;;;;;;;;;11.30;99.90;;;;;;5088443;28;19920;-67
2024/01/26 03:09:17;;;;;;;;;;;11.30;99.90;;;;;;5090240;28;19964;-67
2024/01/26 03:11:43;;;;;;;;;;;11.30;99.90;;;;;;5090297;28;19991;-68
2024/01/26 03:14:09;;;;;;;;;;;11.30;99.90;;;;;;5088663;28;19908;-68
2024/01/26 03:16:36;;;;;;;;;;;11.30;99.90;;;;;;5090341;28;19991;-68
2024/01/26 03:19:01;;;;;;;;;;;11.30;99.90;;;;;;5090235;28;20003;-67
2024/01/26 03:21:27;;;;;;;;;;;11.30;99.90;;;;;;5090002;28;20002;-67
2024/01/26 03:23:53;;;;;;;;;;;11.30;99.90;;;;;;5090052;28;20376;-67
2024/01/26 03:26:19;;;;;;;;;;;11.30;99.90;;;;;;5089913;28;19908;-67
2024/01/26 03:28:46;;;;;;;;;;;11.30;99.90;;;;;;5089904;28;19973;-68
2024/01/26 03:31:11;;;;;;;;;;;11.30;99.90;;;;;;5090025;28;20391;-67
2024/01/26 03:33:37;;;;;;;;;;;11.30;99.90;;;;;;5089798;28;19916;-67
2024/01/26 03:36:03;;;;;;;;;;;11.30;99.90;;;;;;5089868;28;19908;-69
2024/01/26 03:38:29;;;;;;;;;;;11.30;99.90;;;;;;5089959;28;19947;-67
2024/01/26 03:40:55;;;;;;;;;;;11.30;99.90;;;;;;5090097;28;19908;-69
2024/01/26 03:43:20;;;;;;;;;;;11.20;99.90;;;;;;5089948;28;19909;-67
2024/01/26 03:45:46;;;;;;;;;;;11.20;99.90;;;;;;5089585;28;19916;-66
2024/01/26 03:48:12;;;;;;;;;;;11.20;99.90;;;;;;5089515;28;20417;-66
2024/01/26 03:50:38;;;;;;;;;;;11.20;99.90;;;;;;5089456;28;19994;-67
2024/01/26 03:53:04;;;;;;;;;;;11.20;99.90;;;;;;5089686;28;20011;-66
2024/01/26 03:55:31;;;;;;;;;;;11.30;99.90;;;;;;5089983;28;20364;-67
2024/01/26 03:57:58;;;;;;;;;;;11.30;99.90;;;;;;5089414;28;20229;-67
2024/01/26 04:00:24;;;;;;;;;;;11.30;99.90;;;;;;5089293;28;20202;-67
2024/01/26 04:02:50;;;;;;;;;;;11.30;99.90;;;;;;5090286;28;19908;-67
2024/01/26 04:05:16;;;;;;;;;;;11.30;99.90;;;;;;5090097;28;19916;-68
2024/01/26 04:07:41;;;;;;;;;;;11.20;99.90;;;;;;5090486;28;19920;-68
2024/01/26 04:10:07;;;;;;;;;;;11.10;99.90;;;;;;5089263;28;19973;-67
2024/01/26 04:12:33;;;;;;;;;;;11.10;99.90;;;;;;5090444;28;19916;-67
2024/01/26 04:14:59;;;;;;;;;;;11.10;99.90;;;;;;5090541;28;20305;-66
2024/01/26 04:17:25;;;;;;;;;;;11.10;99.90;;;;;;5090519;28;19914;-67
2024/01/26 04:19:51;;;;;;;;;;;11.10;99.90;;;;;;5089964;28;19908;-67
2024/01/26 04:22:18;;;;;;;;;;;11.10;99.90;;;;;;5090137;28;19912;-67
2024/01/26 04:24:44;;;;;;;;;;;11.10;99.90;;;;;;5090847;28;19908;-65
2024/01/26 04:27:12;;;;;;;;;;;11.10;99.90;;;;;;5091246;28;20050;-67
2024/01/26 04:29:37;;;;;;;;;;;11.10;99.90;;;;;;5091234;28;19966;-67
2024/01/26 04:32:04;;;;;;;;;;;11.10;99.90;;;;;;5090892;28;19916;-67
2024/01/26 04:34:31;;;;;;;;;;;11.10;99.90;;;;;;5089698;28;19931;-67
2024/01/26 04:36:57;;;;;;;;;;;11.10;99.90;;;;;;5089069;28;19908;-67
2024/01/26 04:39:24;;;;;;;;;;;11.10;99.90;;;;;;5090953;28;19908;-67
2024/01/26 04:41:51;;;;;;;;;;;11.00;99.90;;;;;;5089235;28;20065;-67
2024/01/26 04:44:18;;;;;;;;;;;10.90;99.90;;;;;;5090899;28;19916;-68
2024/01/26 04:46:43;;;;;;;;;;;10.90;99.90;;;;;;5092228;28;20007;-66
2024/01/26 04:49:10;;;;;;;;;;;10.90;99.90;;;;;;5094625;28;19908;-69
2024/01/26 04:51:39;;;;;;;;;;;10.90;99.90;;;;;;5094695;28;19999;-67
2024/01/26 04:54:05;;;;;;;;;;;10.90;99.90;;;;;;5095503;28;19915;-66
2024/01/26 04:56:31;;;;;;;;;;;10.80;99.90;;;;;;5095486;28;19908;-67
2024/01/26 04:58:57;;;;;;;;;;;10.90;99.90;;;;;;5095390;28;19972;-68
2024/01/26 05:01:23;;;;;;;;;;;10.90;99.90;;;;;;5095303;28;20269;-66
2024/01/26 05:03:48;;;;;;;;;;;10.90;99.90;;;;;;5095267;28;19938;-66
2024/01/26 05:06:15;;;;;;;;;;;10.90;99.90;;;;;;5095257;28;19942;-67
2024/01/26 05:08:41;;;;;;;;;;;10.90;99.90;;;;;;5095099;28;19916;-67
2024/01/26 05:11:07;;;;;;;;;;;10.90;99.90;;;;;;5095045;28;19927;-67
2024/01/26 05:13:33;;;;;;;;;;;10.90;99.90;;;;;;5094898;28;19931;-67
2024/01/26 05:15:58;;;;;;;;;;;10.80;99.90;;;;;;5094969;28;19915;-67
2024/01/26 05:18:24;;;;;;;;;;;10.80;99.90;;;;;;5095454;28;19915;-68
2024/01/26 05:20:50;;;;;;;;;;;10.70;99.90;;;;;;5095391;28;20016;-66
2024/01/26 05:23:16;;;;;;;;;;;10.70;99.90;;;;;;5093992;28;19912;-67
2024/01/26 05:25:42;;;;;;;;;;;10.70;99.90;;;;;;5095506;28;19991;-67
2024/01/26 05:28:08;;;;;;;;;;;10.80;99.90;;;;;;5095375;28;19919;-67
2024/01/26 05:30:34;;;;;;;;;;;10.80;99.90;;;;;;5095330;28;19908;-67
2024/01/26 05:33:01;;;;;;;;;;;10.90;99.90;;;;;;5095334;28;19909;-67
2024/01/26 05:35:26;;;;;;;;;;;11.00;99.90;;;;;;5095224;28;20010;-66
2024/01/26 05:37:52;;;;;;;;;;;11.00;99.90;;;;;;5095062;28;19947;-66
2024/01/26 05:40:18;;;;;;;;;;;11.10;99.90;;;;;;5095192;28;19914;-68
2024/01/26 05:42:44;;;;;;;;;;;11.00;99.90;;;;;;5095463;28;19908;-66
2024/01/26 05:45:10;;;;;;;;;;;11.00;99.90;;;;;;5095123;28;19908;-66
2024/01/26 05:47:37;;;;;;;;;;;10.90;99.90;;;;;;5095130;28;20313;-68
2024/01/26 05:50:03;;;;;;;;;;;10.90;99.90;;;;;;5091416;28;19913;-67
2024/01/26 05:52:31;;;;;;;;;;;10.90;99.90;;;;;;5084305;28;19962;-63
2024/01/26 05:54:57;;;;;;;;;;;10.90;99.90;;;;;;5085890;28;19991;-66
2024/01/26 05:57:22;;;;;;;;;;;10.90;99.90;;;;;;5083828;28;19959;-67
2024/01/26 05:59:48;;;;;;;;;;;10.80;99.90;;;;;;5093520;28;19964;-67
2024/01/26 06:02:14;;;;;;;;;;;10.80;99.90;;;;;;5094417;28;20356;-66
2024/01/26 06:04:40;;;;;;;;;;;10.80;99.90;;;;;;5093314;28;19966;-67
2024/01/26 06:07:06;;;;;;;;;;;10.90;99.90;;;;;;5094272;28;19965;-67
2024/01/26 06:09:32;;;;;;;;;;;10.90;99.90;;;;;;5094420;28;19959;-67
2024/01/26 06:11:58;;;;;;;;;;;10.90;99.90;;;;;;5094209;28;19931;-67
2024/01/26 06:14:25;;;;;;;;;;;10.90;99.90;;;;;;5094361;28;20314;-67
2024/01/26 06:16:50;;;;;;;;;;;10.90;99.90;;;;;;5093995;28;20019;-68
2024/01/26 06:19:16;;;;;;;;;;;10.80;99.90;;;;;;5094156;28;19952;-64
2024/01/26 06:21:42;;;;;;;;;;;10.80;99.90;;;;;;5093667;28;19912;-68
2024/01/26 06:24:08;;;;;;;;;;;10.80;99.90;;;;;;5094232;28;19912;-68
2024/01/26 06:26:34;;;;;;;;;;;10.90;99.90;;;;;;5093965;28;20063;-71
2024/01/26 06:28:59;;;;;;;;;;;10.80;99.90;;;;;;5093089;28;19912;-65
2024/01/26 06:31:26;;;;;;;;;;;10.90;99.90;;;;;;5092938;28;19915;-67
2024/01/26 06:33:51;;;;;;;;;;;10.90;99.90;;;;;;5093357;28;19916;-67
2024/01/26 06:36:17;;;;;;;;;;;11.00;99.90;;;;;;5093360;28;19971;-67
2024/01/26 06:38:43;;;;;;;;;;;11.30;99.90;;;;;;5091901;28;19919;-68
2024/01/26 06:41:09;;;;;;;;;;;11.60;99.90;;;;;;5093126;28;20395;-67
2024/01/26 06:43:35;;;;;;;;;;;11.80;99.90;;;;;;5092293;28;19912;-67
2024/01/26 06:46:01;;;;;;;;;;;12.10;99.90;;;;;;5093205;28;19964;-69
2024/01/26 06:48:27;;;;;;;;;;;12.40;99.90;;;;;;5092867;28;19914;-69
2024/01/26 06:50:53;;;;;;;;;;;12.70;99.90;;;;;;5079350;28;19916;-66
2024/01/26 06:53:19;;;;;;;;;;;13.00;99.90;;;;;;5071512;28;20275;-67
2024/01/26 06:55:45;;;;;;;;;;;13.20;99.90;;;;;;5071539;28;20399;-67
2024/01/26 06:58:12;;;;;;;;;;;13.50;99.90;;;;;;5071178;28;19909;-68
2024/01/26 07:00:38;;;;;;;;;;;13.70;99.90;;;;;;5071236;28;19913;-66
2024/01/26 07:03:04;;;;;;;;;;;13.80;99.90;;;;;;5071414;28;19909;-68
2024/01/26 07:05:29;;;;;;;;;;;14.10;99.90;;;;;;5071556;28;19908;-68
2024/01/26 07:07:56;;;;;;;;;;;14.20;99.90;;;;;;5071285;28;20011;-67
2024/01/26 07:10:25;;;;;;;;;;;14.40;99.90;;;;;;5070702;28;19982;-67
2024/01/26 07:12:51;;;;;;;;;;;14.80;99.90;;;;;;5071154;28;19921;-67
2024/01/26 07:15:17;;;;;;;;;;;15.00;99.90;;;;;;5070993;28;20361;-67
2024/01/26 07:17:42;;;;;;;;;;;15.40;99.90;;;;;;5071266;28;19909;-69
2024/01/26 07:20:11;;;;;;;;;;;15.60;99.90;;;;;;5083577;28;19912;-68
2024/01/26 07:22:37;;;;;;;;;;;15.60;99.90;;;;;;5092119;28;19919;-68
2024/01/26 07:25:09;;;;;;;;;;;16.00;99.90;;;;;;5092391;28;19908;-68
2024/01/26 07:27:35;;;;;;;;;;;16.40;99.90;;;;;;5092095;28;19908;-67
2024/01/26 07:30:03;;;;;;;;;;;16.60;99.90;;;;;;5092179;28;19927;-66
2024/01/26 07:32:29;;;;;;;;;;;17.10;99.90;;;;;;5092120;28;20233;-68
2024/01/26 07:34:54;;;;;;;;;;;17.50;99.90;;;;;;5092491;28;19977;-69
2024/01/26 07:37:20;;;;;;;;;;;18.10;99.90;;;;;;5092108;28;19908;-68
2024/01/26 07:39:46;;;;;;;;;;;17.90;99.90;;;;;;5092232;28;19984;-68
2024/01/26 07:42:12;;;;;;;;;;;17.50;99.90;;;;;;5092168;28;19908;-70
2024/01/26 07:44:37;;;;;;;;;;;17.60;99.90;;;;;;5092064;28;19931;-70
2024/01/26 07:47:04;;;;;;;;;;;18.10;99.90;;;;;;5091678;28;20244;-68
2024/01/26 07:49:29;;;;;;;;;;;18.10;99.90;;;;;;5092047;28;19908;-66
2024/01/26 07:51:55;;;;;;;;;;;18.20;99.90;;;;;;5090355;28;20008;-69
2024/01/26 07:54:21;;;;;;;;;;;18.40;99.90;;;;;;5092226;28;20260;-69
2024/01/26 07:56:47;;;;;;;;;;;18.00;99.90;;;;;;5092219;28;19915;-66
2024/01/26 07:59:13;;;;;;;;;;;17.40;99.90;;;;;;5091768;28;19951;-67
2024/01/26 08:01:38;;;;;;;;;;;17.00;99.90;;;;;;5091437;28;19918;-66
2024/01/26 08:04:04;;;;;;;;;;;16.80;99.90;;;;;;5091676;28;19957;-69
2024/01/26 08:06:30;;;;;;;;;;;16.80;99.90;;;;;;5091821;28;20303;-65
2024/01/26 08:08:57;;;;;;;;;;;16.90;99.90;;;;;;5089728;28;20347;-66
2024/01/26 08:11:23;;;;;;;;;;;16.80;99.90;;;;;;5089721;28;19966;-67
2024/01/26 08:13:50;;;;;;;;;;;16.70;99.90;;;;;;5091371;28;19908;-66
2024/01/26 08:16:20;;;;;;;;;;;16.60;99.90;;;;;;5088953;28;19988;-64
2024/01/26 08:18:45;;;;;;;;;;;16.60;99.90;;;;;;5091307;28;19908;-66
2024/01/26 08:21:13;;;;;;;;;;;16.70;99.90;;;;;;5094099;28;19915;-66
2024/01/26 08:23:42;;;;;;;;;;;17.10;99.90;;;;;;5095519;28;19908;-67
2024/01/26 08:26:10;;;;;;;;;;;17.20;99.90;;;;;;5093878;28;20292;-65
2024/01/26 08:28:36;;;;;;;;;;;17.10;99.90;;;;;;5093650;28;19912;-67
2024/01/26 08:31:09;;;;;;;;;;;17.30;99.90;;;;;;5080762;28;19943;-67
2024/01/26 08:33:35;;;;;;;;;;;17.50;99.90;;;;;;5075296;28;19908;-63
2024/01/26 08:36:01;;;;;;;;;;;17.50;99.90;;;;;;5075093;28;19908;-64
2024/01/26 08:38:28;;;;;;;;;;;17.10;99.90;;;;;;5074865;28;19916;-64
2024/01/26 08:40:56;;;;;;;;;;;17.10;99.90;;;;;;5085462;28;20360;-67
2024/01/26 08:43:22;;;;;;;;;;;17.10;99.90;;;;;;5088986;28;19914;-66
2024/01/26 08:45:48;;;;;;;;;;;17.20;99.90;;;;;;5093539;28;19912;-64
2024/01/26 08:48:14;;;;;;;;;;;17.10;99.90;;;;;;5074564;28;19908;-64
2024/01/26 08:50:43;;;;;;;;;;;17.10;99.90;;;;;;5082019;28;20290;-63
2024/01/26 08:53:09;;;;;;;;;;;17.20;99.90;;;;;;5091355;28;19912;-63
2024/01/26 08:55:39;;;;;;;;;;;17.00;99.90;;;;;;5092202;28;19923;-63
2024/01/26 08:58:06;;;;;;;;;;;17.20;99.90;;;;;;5073881;28;19913;-64
2024/01/26 09:00:32;;;;;;;;;;;17.30;99.90;;;;;;5073345;28;19909;-65
2024/01/26 09:02:58;;;;;;;;;;;17.60;99.90;;;;;;5078122;28;20416;-64
2024/01/26 09:05:25;;;;;;;;;;;17.80;99.90;;;;;;5092404;28;19912;-66
2024/01/26 09:07:51;;;;;;;;;;;18.10;99.90;;;;;;5086648;28;19927;-70
2024/01/26 09:10:23;;;;;;;;;;;18.40;99.90;;;;;;5093466;28;19952;-69
2024/01/26 09:12:54;;;;;;;;;;;18.40;99.90;;;;;;5087832;28;19943;-66
2024/01/26 09:15:21;;;;;;;;;;;18.50;99.90;;;;;;5082293;28;19912;-66
2024/01/26 09:17:47;;;;;;;;;;;18.60;99.90;;;;;;5073496;28;19915;-70
2024/01/26 09:20:14;;;;;;;;;;;18.70;99.90;;;;;;5081337;28;19916;-64
2024/01/26 09:22:41;;;;;;;;;;;18.60;99.90;;;;;;5079523;28;19909;-65
2024/01/26 09:25:08;;;;;;;;;;;18.60;99.90;;;;;;5085752;28;19912;-69
2024/01/26 09:27:34;;;;;;;;;;;18.70;99.90;;;;;;5074242;28;19994;-67
2024/01/26 09:30:00;;;;;;;;;;;18.90;99.90;;;;;;5073678;28;20440;-68
2024/01/26 09:32:26;;;;;;;;;;;19.00;99.90;;;;;;5072748;28;20378;-65
2024/01/26 09:34:52;;;;;;;;;;;19.30;99.90;;;;;;5075581;28;19912;-63
2024/01/26 09:37:20;;;;;;;;;;;19.30;99.90;;;;;;5080820;28;20015;-63
2024/01/26 09:39:46;;;;;;;;;;;19.50;99.90;;;;;;5073563;28;19947;-62
2024/01/26 09:42:12;;;;;;;;;;;19.50;99.90;;;;;;5073124;28;20438;-64
2024/01/26 09:44:38;;;;;;;;;;;19.30;99.90;;;;;;5072096;28;19917;-65
2024/01/26 09:47:07;;;;;;;;;;;19.20;99.90;;;;;;5084768;28;20399;-63
2024/01/26 09:49:33;;;;;;;;;;;19.20;99.90;;;;;;5092775;28;19912;-63
2024/01/26 09:52:02;;;;;;;;;;;19.30;99.90;;;;;;5083440;28;19946;-65
2024/01/26 09:54:28;;;;;;;;;;;19.30;99.90;;;;;;5073185;28;19924;-63
2024/01/26 09:56:55;;;;;;;;;;;19.20;99.90;;;;;;5079057;28;19908;-63
2024/01/26 09:59:21;;;;;;;;;;;19.20;99.90;;;;;;5092433;28;19912;-63
2024/01/26 10:01:48;;;;;;;;;;;19.10;99.90;;;;;;5088818;28;19924;-63
2024/01/26 10:04:14;;;;;;;;;;;19.00;99.90;;;;;;5087657;28;19953;-64
2024/01/26 10:06:40;;;;;;;;;;;19.10;99.90;;;;;;5092918;28;19923;-65
2024/01/26 10:09:08;;;;;;;;;;;19.10;99.90;;;;;;5093285;28;19916;-63
2024/01/26 10:11:36;;;;;;;;;;;18.80;99.90;;;;;;5089860;28;19939;-67
2024/01/26 10:14:12;;;;;;;;;;;18.80;99.90;;;;;;5083647;28;20391;-64
2024/01/26 10:16:41;;;;;;;;;;;18.80;99.90;;;;;;5092868;28;20390;-62
2024/01/26 10:19:07;;;;;;;;;;;18.70;99.90;;;;;;5093349;28;19951;-65
2024/01/26 10:21:35;;;;;;;;;;;18.80;99.90;;;;;;5089755;28;19991;-64
2024/01/26 10:24:01;;;;;;;;;;;19.10;99.90;;;;;;5081107;28;19913;-63
2024/01/26 10:26:28;;;;;;;;;;;19.10;99.90;;;;;;5092098;28;19973;-64
2024/01/26 10:28:56;;;;;;;;;;;19.20;99.90;;;;;;5092310;28;19916;-66
2024/01/26 10:31:24;;;;;;;;;;;19.10;99.90;;;;;;5091240;28;19916;-63
2024/01/26 10:34:04;;;;;;;;;;;19.00;99.90;;;;;;5075945;28;19920;-65
2024/01/26 10:36:59;;;;;;;;;;;19.00;99.90;;;;;;5090140;28;20002;-63
2024/01/26 10:39:28;;;;;;;;;;;19.00;99.90;;;;;;5091841;28;19915;-64
2024/01/26 10:42:03;;;;;;;;;;;19.00;99.90;;;;;;5087913;28;19991;-67
2024/01/26 10:44:37;;;;;;;;;;;19.30;99.90;;;;;;5073119;28;19908;-66
2024/01/26 10:47:04;;;;;;;;;;;19.40;99.90;;;;;;5090965;28;20509;-65
2024/01/26 10:49:40;;;;;;;;;;;19.30;99.90;;;;;;5092357;28;20286;-64
2024/01/26 10:52:08;;;;;;;;;;;19.30;99.90;;;;;;5083998;28;19947;-65
2024/01/26 10:54:34;;;;;;;;;;;19.30;99.90;;;;;;5072334;28;19909;-65
2024/01/26 10:57:01;;;;;;;;;;;19.20;99.90;;;;;;5074076;28;19928;-65
2024/01/26 10:59:27;;;;;;;;;;;19.20;99.90;;;;;;5081862;28;19972;-68
2024/01/26 11:01:55;;;;;;;;;;;19.20;99.90;;;;;;5092115;28;19933;-64
2024/01/26 11:04:21;;;;;;;;;;;19.20;99.90;;;;;;5090825;28;20378;-67
2024/01/26 11:06:47;;;;;;;;;;;19.10;99.90;;;;;;5077229;28;19923;-66
2024/01/26 11:09:15;;;;;;;;;;;19.00;99.90;;;;;;5074467;28;19916;-65
2024/01/26 11:11:43;;;;;;;;;;;19.00;99.90;;;;;;5079403;28;21553;-66
2024/01/26 11:14:11;;;;;;;;;;;19.00;99.90;;;;;;5071639;28;19919;-67
2024/01/26 11:16:43;;;;;;;;;;;19.10;99.90;;;;;;5090297;28;19912;-70
2024/01/26 11:19:20;;;;;;;;;;;19.00;99.90;;;;;;5090657;28;19912;-66
2024/01/26 11:21:47;;;;;;;;;;;18.90;99.90;;;;;;5079490;28;19912;-67
2024/01/26 11:24:17;;;;;;;;;;;18.80;99.90;;;;;;5071776;28;19908;-67
2024/01/26 11:26:54;;;;;;;;;;;18.80;99.90;;;;;;5070600;28;19953;-67
2024/01/26 11:29:20;;;;;;;;;;;18.60;99.90;;;;;;5072070;28;19915;-68
2024/01/26 11:31:46;;;;;;;;;;;18.60;99.90;;;;;;5070950;28;20007;-68
2024/01/26 11:34:22;;;;;;;;;;;18.60;99.90;;;;;;5071915;28;19956;-69
2024/01/26 11:36:48;;;;;;;;;;;18.50;99.90;;;;;;5070618;28;19915;-69
2024/01/26 11:39:16;;;;;;;;;;;18.60;99.90;;;;;;5071620;28;20265;-69
2024/01/26 11:41:45;;;;;;;;;;;18.60;99.90;;;;;;5070864;28;19913;-69
2024/01/26 11:44:22;;;;;;;;;;;18.70;99.90;;;;;;5083401;28;19916;-68
2024/01/26 11:46:49;;;;;;;;;;;18.80;99.90;;;;;;5091987;28;20310;-68
2024/01/26 11:49:15;;;;;;;;;;;18.90;99.90;;;;;;5091788;28;20380;-70
2024/01/26 11:51:41;;;;;;;;;;;19.10;99.90;;;;;;5091744;28;19916;-69
2024/01/26 11:54:07;;;;;;;;;;;19.40;99.90;;;;;;5090571;28;19908;-67
2024/01/26 11:56:33;;;;;;;;;;;19.60;99.90;;;;;;5094178;28;19915;-68
2024/01/26 11:58:59;;;;;;;;;;;19.60;99.90;;;;;;5095715;28;19919;-67
2024/01/26 12:01:25;;;;;;;;;;;19.60;99.90;;;;;;5095472;28;20288;-66
2024/01/26 12:03:51;;;;;;;;;;;19.70;99.90;;;;;;5095473;28;19915;-68
2024/01/26 12:06:17;;;;;;;;;;;19.80;99.90;;;;;;5095595;28;19915;-67
2024/01/26 12:08:43;;;;;;;;;;;19.70;99.90;;;;;;5095175;28;19927;-67
2024/01/26 12:11:12;;;;;;;;;;;19.40;99.90;;;;;;5095550;28;19924;-68
2024/01/26 12:13:39;;;;;;;;;;;19.40;99.90;;;;;;5093715;28;19943;-68
2024/01/26 12:16:08;;;;;;;;;;;19.40;99.90;;;;;;5095087;28;19908;-67
2024/01/26 12:18:34;;;;;;;;;;;19.00;99.90;;;;;;5095308;28;19934;-68
2024/01/26 12:21:00;;;;;;;;;;;19.00;99.90;;;;;;5081343;28;19916;-68
2024/01/26 12:23:25;;;;;;;;;;;19.10;99.90;;;;;;5074551;28;20330;-66
2024/01/26 12:25:52;;;;;;;;;;;18.90;99.90;;;;;;5073111;28;19914;-67
2024/01/26 12:28:18;;;;;;;;;;;19.00;99.90;;;;;;5074792;28;19909;-68
2024/01/26 12:30:47;;;;;;;;;;;18.90;99.90;;;;;;5074741;28;19924;-69
2024/01/26 12:33:13;;;;;;;;;;;19.00;99.90;;;;;;5074772;28;20003;-67
2024/01/26 12:35:41;;;;;;;;;;;19.10;99.90;;;;;;5074328;28;19971;-67
2024/01/26 12:38:07;;;;;;;;;;;19.10;99.90;;;;;;5073927;28;20238;-67
2024/01/26 12:40:33;;;;;;;;;;;19.10;99.90;;;;;;5074775;28;19908;-80
2024/01/26 12:43:02;;;;;;;;;;;19.10;99.90;;;;;;5075101;28;19912;-71
2024/01/26 12:45:28;;;;;;;;;;;19.20;99.90;;;;;;5075081;28;19991;-67
2024/01/26 12:47:55;;;;;;;;;;;19.30;99.90;;;;;;5075153;28;19988;-67
2024/01/26 12:50:21;;;;;;;;;;;19.30;99.90;;;;;;5075098;28;19909;-66
2024/01/26 12:52:47;;;;;;;;;;;19.40;99.90;;;;;;5074781;28;19923;-67
2024/01/26 12:55:13;;;;;;;;;;;19.40;99.90;;;;;;5075220;28;20357;-70
2024/01/26 12:57:39;;;;;;;;;;;19.40;99.90;;;;;;5075037;28;19958;-66
2024/01/26 13:00:05;;;;;;;;;;;19.60;99.90;;;;;;5074954;28;20349;-67
2024/01/26 13:02:31;;;;;;;;;;;19.60;99.90;;;;;;5075137;28;19950;-67
2024/01/26 13:05:00;;;;;;;;;;;19.80;99.90;;;;;;5090923;28;19995;-67
2024/01/26 13:07:26;;;;;;;;;;;20.00;99.90;;;;;;5094021;28;19923;-67
2024/01/26 13:09:52;;;;;;;;;;;20.00;99.90;;;;;;5094011;28;19919;-66
2024/01/26 13:12:18;;;;;;;;;;;19.80;99.90;;;;;;5095274;28;19923;-65
2024/01/26 13:14:46;;;;;;;;;;;19.70;99.90;;;;;;5095168;28;19915;-67
2024/01/26 13:17:13;;;;;;;;;;;19.70;99.90;;;;;;5095246;28;19943;-67
2024/01/26 13:19:39;;;;;;;;;;;19.60;99.90;;;;;;5095169;28;19959;-67
2024/01/26 13:22:05;;;;;;;;;;;19.40;99.90;;;;;;5095452;28;19961;-66
2024/01/26 13:24:31;;;;;;;;;;;19.30;99.90;;;;;;5095220;28;19977;-66
2024/01/26 13:26:57;;;;;;;;;;;19.20;99.90;;;;;;5095205;28;20248;-66
2024/01/26 13:29:23;;;;;;;;;;;19.40;99.90;;;;;;5095199;28;19908;-67
2024/01/26 13:31:49;;;;;;;;;;;19.40;99.90;;;;;;5095055;28;20007;-68
2024/01/26 13:34:16;;;;;;;;;;;19.40;99.90;;;;;;5095017;28;19952;-67
2024/01/26 13:36:44;;;;;;;;;;;19.10;99.90;;;;;;5094965;28;19969;-67
2024/01/26 13:39:10;;;;;;;;;;;19.20;99.90;;;;;;5094776;28;19965;-67
2024/01/26 13:41:45;;;;;;;;;;;19.20;99.90;;;;;;5095174;28;19954;-67
2024/01/26 13:44:12;;;;;;;;;;;19.30;99.90;;;;;;5094971;28;19908;-65
2024/01/26 13:46:39;;;;;;;;;;;19.30;99.90;;;;;;5094009;28;19912;-67
2024/01/26 13:49:05;;;;;;;;;;;19.40;99.90;;;;;;5094564;28;19908;-67
2024/01/26 13:51:32;;;;;;;;;;;19.50;99.90;;;;;;5094330;28;19916;-67
2024/01/26 13:53:59;;;;;;;;;;;19.50;99.90;;;;;;5094114;28;19941;-68
2024/01/26 13:56:25;;;;;;;;;;;19.40;99.90;;;;;;5094130;28;19908;-67
2024/01/26 13:58:52;;;;;;;;;;;19.10;99.90;;;;;;5094029;28;19908;-67
2024/01/26 14:01:18;;;;;;;;;;;19.20;99.90;;;;;;5093792;28;19931;-68
2024/01/26 14:03:44;;;;;;;;;;;19.10;99.90;;;;;;5093310;28;20022;-67
2024/01/26 14:06:12;;;;;;;;;;;19.00;99.90;;;;;;5092380;28;20010;-67
2024/01/26 14:08:38;;;;;;;;;;;18.90;99.90;;;;;;5092346;28;19974;-67
2024/01/26 14:11:04;;;;;;;;;;;18.90;99.90;;;;;;5093438;28;19943;-67
2024/01/26 14:13:30;;;;;;;;;;;18.90;99.90;;;;;;5093315;28;20328;-67